Wetterdaten: September 2017
Datum Temp Feuchte Luftdruck Regen Wind Richtung Sonnenschein UV Solar Windben
01.09.2017 10,5 C 92 % 1019,7 hPa 0,6 l/m 0,0 km/h N-NO 6,08 h 1,8 UV-I 250 W/m 0,0 km/h
02.09.2017 11,8 C 93 % 1018,8 hPa 5,0 l/m 0,0 km/h N-NO 3,85 h 1,5 UV-I 214 W/m 0,0 km/h
03.09.2017 11,0 C 87 % 1015,9 hPa 0,2 l/m 0,3 km/h S 7,42 h 2,1 UV-I 321 W/m 2,0 km/h
04.09.2017 12,8 C 84 % 1016,4 hPa 0,0 l/m 0,0 km/h S-SW 9,17 h 2,3 UV-I 370 W/m 0,0 km/h
05.09.2017 16,1 C 89 % 1016,3 hPa 0,2 l/m 0,8 km/h S 2,58 h 2,4 UV-I 210 W/m 3,2 km/h
06.09.2017 13,9 C 87 % 1013,4 hPa 6,2 l/m 1,4 km/h NW 1,00 h 1,2 UV-I 121 W/m 7,7 km/h
07.09.2017 13,5 C 86 % 1013,2 hPa 0,6 l/m 0,9 km/h S-SW 2,17 h 1,6 UV-I 181 W/m 4,4 km/h
08.09.2017 13,9 C 90 % 1002,1 hPa 11,2 l/m 5,7 km/h S 0,00 h 1,0 UV-I 76 W/m 10,1 km/h
09.09.2017 12,6 C 91 % 997,7 hPa 7,4 l/m 3,9 km/h S-SO 2,25 h 1,6 UV-I 172 W/m 8,9 km/h
10.09.2017 11,8 C 82 % 1002,8 hPa 0,2 l/m 0,5 km/h S 4,43 h 1,9 UV-I 269 W/m 2,4 km/h
11.09.2017 13,8 C 80 % 997,6 hPa 4,0 l/m 14,4 km/h S 3,50 h 1,9 UV-I 238 W/m 27,3 km/h
12.09.2017 12,1 C 85 % 1005,4 hPa 2,4 l/m 1,8 km/h S 3,25 h 2,0 UV-I 237 W/m 11,3 km/h
13.09.2017 11,9 C 90 % 998,6 hPa 10,4 l/m 6,3 km/h S 2,33 h 1,7 UV-I 206 W/m 17,7 km/h
14.09.2017 10,4 C 91 % 1001,5 hPa 12,6 l/m 8,5 km/h S 1,42 h 1,5 UV-I 177 W/m 28,2 km/h
15.09.2017 10,2 C 89 % 1010,4 hPa 0,8 l/m 0,0 km/h S-SW 3,25 h 1,5 UV-I 221 W/m 0,0 km/h
16.09.2017 9,5 C 87 % 1010,9 hPa 0,2 l/m 0,6 km/h S 6,33 h 1,5 UV-I 267 W/m 4,4 km/h
17.09.2017 8,1 C 90 % 1012,8 hPa 2,6 l/m 0,0 km/h S 3,92 h 1,6 UV-I 243 W/m 0,0 km/h
18.09.2017 9,2 C 92 % 1014,3 hPa 2,6 l/m 0,5 km/h S 2,00 h 1,3 UV-I 178 W/m 4,4 km/h
19.09.2017 10,0 C 91 % 1017,3 hPa 0,6 l/m 0,0 km/h NW 2,08 h 1,0 UV-I 133 W/m 0,0 km/h
20.09.2017 11,3 C 92 % 1020,1 hPa 1,4 l/m 1,6 km/h W 0,58 h 1,1 UV-I 120 W/m 6,9 km/h
21.09.2017 9,7 C 90 % 1020,6 hPa 0,0 l/m 1,9 km/h SO 7,58 h 1,8 UV-I 297 W/m 3,6 km/h
22.09.2017 12,4 C 86 % 1020,5 hPa 0,4 l/m 0,3 km/h NW 4,92 h 1,9 UV-I 271 W/m 2,4 km/h
23.09.2017 12,5 C 95 % 1022,5 hPa 1,0 l/m 0,2 km/h NW 0,08 h 1,0 UV-I 115 W/m 1,6 km/h
24.09.2017 13,3 C 92 % 1022,2 hPa 0,0 l/m 0,0 km/h N 0,92 h 1,3 UV-I 140 W/m 0,0 km/h
25.09.2017 12,7 C 94 % 1020,8 hPa 7,0 l/m 0,1 km/h NO 1,08 h 1,1 UV-I 126 W/m 1,2 km/h
26.09.2017 12,6 C 93 % 1022,7 hPa 0,2 l/m 0,0 km/h SO 2,92 h 1,3 UV-I 193 W/m 0,0 km/h
27.09.2017 12,1 C 93 % 1023,4 hPa 0,0 l/m 0,8 km/h SO 5,17 h 1,4 UV-I 234 W/m 3,2 km/h
28.09.2017 14,7 C 92 % 1023,1 hPa 0,0 l/m 2,7 km/h S-SO 0,90 h 1,4 UV-I 145 W/m 4,4 km/h
29.09.2017 16,0 C 91 % 1019,7 hPa 0,0 l/m 6,6 km/h S-SO 3,67 h 1,4 UV-I 187 W/m 12,1 km/h
30.09.2017 13,6 C 95 % 1015,5 hPa 9,8 l/m 1,9 km/h S-SO 1,50 h 1,2 UV-I 140 W/m 10,4 km/h
Min-Datum 26.09.17 26.09.17 09.09.17 24 Tage 01.09.17 - - - - 01.09.17
Min-Zeit 19:15 19:15 09:05 - 00:00 - - - - 00:00
Minimum 0,0 C 0 % 993,3 hPa - 0,0 km/h - - - - 0,0 km/h
Max-Datum 26.09.17 01.09.17 27.09.17 14.09.17 13.09.17 - 04.09.17 07.09.17 10.09.17 13.09.17
Max-Zeit 19:20 08:15 10:05 02:10 12:05 - 18:05 13:15 14:05 11:55
Maximum 73,3 C 98 % 1024,3 hPa 12,6 l/m 31,6 km/h
S
- 9,08 h 4,8 UV-I 939 W/m 61,2 km/h
S
Durchschnitt 12,1 C 90 % 1013,9 hPa #87,6 l/m 2,1 km/h S #96:21 h 1,5 UV-I 202 W/m 5,9 km/h

Durchschnitt Minimum Temp.8,2 C
Durchschnitt Maximum Temp.19,0 C